Time;durP1;ratioP1;P1;durP2;ratioP2;P2;SDS_P1;SDS_P2;PMS_P1;PMS_P2;Temp;Humidity;BMP_temperature;BMP_pressure;BME280_temperature;BME280_humidity;BME280_pressure;Samples;Min_cycle;Max_cycle;Signal;HPM_P1;HPM_P2
2023/04/18 00:00:22;;;;;;;15.65;9.60;;;;;;;;;;5149993;27;20464;-69
2023/04/18 00:02:50;;;;;;;19.85;9.82;;;;;;;;;;5149657;27;20126;-66
2023/04/18 00:05:16;;;;;;;19.27;12.10;;;;;;;;;;5150696;27;20022;-69
2023/04/18 00:07:43;;;;;;;19.05;10.93;;;;;;;;;;5150323;27;20033;-71
2023/04/18 00:10:08;;;;;;;16.15;9.73;;;;;;;;;;5150467;27;20027;-69
2023/04/18 00:12:35;;;;;;;17.58;9.95;;;;;;;;;;5149906;27;20053;-66
2023/04/18 00:15:01;;;;;;;15.55;10.38;;;;;;;;;;5150684;27;20034;-70
2023/04/18 00:17:27;;;;;;;16.15;9.48;;;;;;;;;;5149391;27;20042;-66
2023/04/18 00:19:57;;;;;;;16.20;9.63;;;;;;;;;;5150011;27;20023;-64
2023/04/18 00:22:23;;;;;;;19.93;10.63;;;;;;;;;;5150409;27;20518;-64
2023/04/18 00:24:49;;;;;;;15.75;9.68;;;;;;;;;;5150235;27;20303;-63
2023/04/18 00:27:16;;;;;;;17.77;10.80;;;;;;;;;;5149589;27;20127;-68
2023/04/18 00:29:42;;;;;;;17.40;11.10;;;;;;;;;;5149039;27;20098;-76
2023/04/18 00:32:07;;;;;;;16.45;10.40;;;;;;;;;;5125779;27;20039;-66
2023/04/18 00:34:33;;;;;;;17.20;10.32;;;;;;;;;;5126566;27;20048;-71
2023/04/18 00:36:58;;;;;;;16.52;10.27;;;;;;;;;;5127429;27;20045;-67
2023/04/18 00:39:24;;;;;;;17.08;9.70;;;;;;;;;;5126684;27;20172;-66
2023/04/18 00:41:49;;;;;;;18.45;10.65;;;;;;;;;;5126568;27;20023;-71
2023/04/18 00:44:14;;;;;;;17.85;9.65;;;;;;;;;;5126449;27;20034;-72
2023/04/18 00:46:40;;;;;;;17.65;10.63;;;;;;;;;;5126489;27;20050;-63
2023/04/18 00:49:05;;;;;;;16.70;10.15;;;;;;;;;;5127044;27;20019;-69
2023/04/18 00:51:33;;;;;;;16.08;9.98;;;;;;;;;;5126561;27;20027;-70
2023/04/18 00:53:59;;;;;;;17.25;10.35;;;;;;;;;;5126579;27;20030;-64
2023/04/18 00:56:25;;;;;;;16.55;10.15;;;;;;;;;;5126927;27;20160;-64
2023/04/18 00:58:51;;;;;;;17.67;10.82;;;;;;;;;;5126647;27;20098;-65
2023/04/18 01:01:16;;;;;;;16.25;10.00;;;;;;;;;;5126170;27;20023;-67
2023/04/18 01:03:42;;;;;;;16.75;9.85;;;;;;;;;;5127410;27;20031;-74
2023/04/18 01:06:08;;;;;;;13.43;9.63;;;;;;;;;;5127910;27;20027;-67
2023/04/18 01:08:34;;;;;;;14.27;9.50;;;;;;;;;;5127374;27;20126;-68
2023/04/18 01:11:00;;;;;;;19.15;9.98;;;;;;;;;;5127390;27;21632;-75
2023/04/18 01:13:25;;;;;;;14.98;8.98;;;;;;;;;;5128340;27;20051;-74
2023/04/18 01:15:52;;;;;;;19.15;10.10;;;;;;;;;;5131467;27;20031;-74
2023/04/18 01:18:19;;;;;;;18.55;10.10;;;;;;;;;;5149725;27;20149;-64
2023/04/18 01:20:49;;;;;;;15.20;9.25;;;;;;;;;;5152160;27;20067;-74
2023/04/18 01:23:16;;;;;;;15.43;9.88;;;;;;;;;;5151876;27;20088;-75
2023/04/18 01:25:42;;;;;;;14.23;9.68;;;;;;;;;;5140863;27;20038;-67
2023/04/18 01:28:08;;;;;;;15.68;10.05;;;;;;;;;;5131492;27;20057;-64
2023/04/18 01:30:34;;;;;;;14.13;9.02;;;;;;;;;;5130679;27;20410;-68
2023/04/18 01:33:00;;;;;;;14.88;9.50;;;;;;;;;;5130790;27;20055;-73
2023/04/18 01:35:26;;;;;;;14.80;9.35;;;;;;;;;;5130971;27;20028;-66
2023/04/18 01:37:51;;;;;;;14.30;8.90;;;;;;;;;;5131307;27;20026;-65
2023/04/18 01:40:17;;;;;;;16.70;10.30;;;;;;;;;;5130275;27;20027;-69
2023/04/18 01:42:42;;;;;;;14.93;9.52;;;;;;;;;;5130614;27;20019;-67
2023/04/18 01:45:08;;;;;;;16.85;10.45;;;;;;;;;;5130693;27;20110;-71
2023/04/18 01:47:34;;;;;;;16.42;10.43;;;;;;;;;;5130400;27;20039;-72
2023/04/18 01:49:59;;;;;;;16.70;10.02;;;;;;;;;;5125046;27;20051;-65
2023/04/18 01:52:26;;;;;;;16.48;11.07;;;;;;;;;;5132140;27;20468;-64
2023/04/18 01:54:52;;;;;;;17.10;10.73;;;;;;;;;;5152632;27;20076;-69
2023/04/18 01:57:17;;;;;;;17.25;10.45;;;;;;;;;;5151413;27;20408;-63
2023/04/18 01:59:42;;;;;;;16.98;10.60;;;;;;;;;;5150827;27;20031;-71
2023/04/18 02:02:09;;;;;;;16.20;10.73;;;;;;;;;;5151430;27;20064;-63
2023/04/18 02:04:35;;;;;;;18.40;9.93;;;;;;;;;;5152154;27;20503;-66
2023/04/18 02:07:00;;;;;;;16.55;10.43;;;;;;;;;;5143796;27;20058;-67
2023/04/18 02:09:26;;;;;;;18.38;10.05;;;;;;;;;;5132384;27;20541;-64
2023/04/18 02:11:53;;;;;;;15.73;9.75;;;;;;;;;;5150959;27;20026;-64
2023/04/18 02:14:18;;;;;;;15.90;10.15;;;;;;;;;;5151135;27;20105;-68
2023/04/18 02:16:44;;;;;;;22.42;10.30;;;;;;;;;;5150633;27;20511;-62
2023/04/18 02:19:09;;;;;;;16.20;9.80;;;;;;;;;;5148722;27;20109;-62
2023/04/18 02:21:35;;;;;;;17.67;9.60;;;;;;;;;;5151403;27;20023;-62
2023/04/18 02:24:00;;;;;;;15.50;8.38;;;;;;;;;;5150681;27;20049;-63
2023/04/18 02:26:26;;;;;;;14.75;9.57;;;;;;;;;;5151234;27;20102;-62
2023/04/18 02:28:51;;;;;;;15.77;9.18;;;;;;;;;;5151060;27;20029;-63
2023/04/18 02:31:16;;;;;;;17.15;9.02;;;;;;;;;;5149056;27;20051;-73
2023/04/18 02:33:43;;;;;;;15.10;8.50;;;;;;;;;;5130056;27;20035;-66
2023/04/18 02:36:09;;;;;;;12.02;8.63;;;;;;;;;;5130167;27;20031;-64
2023/04/18 02:38:35;;;;;;;14.32;8.88;;;;;;;;;;5130604;27;20079;-62
2023/04/18 02:41:00;;;;;;;14.20;8.30;;;;;;;;;;5129787;27;20039;-67
2023/04/18 02:43:26;;;;;;;12.43;8.10;;;;;;;;;;5129240;27;20065;-70
2023/04/18 02:45:51;;;;;;;13.75;8.35;;;;;;;;;;5124039;27;20020;-75
2023/04/18 02:48:16;;;;;;;17.30;8.60;;;;;;;;;;5123858;27;20038;-63
2023/04/18 02:50:42;;;;;;;16.33;8.50;;;;;;;;;;5129316;27;20038;-62
2023/04/18 02:53:07;;;;;;;15.75;8.63;;;;;;;;;;5130893;27;20019;-65
2023/04/18 02:55:33;;;;;;;13.32;8.43;;;;;;;;;;5129128;27;20386;-66
2023/04/18 02:57:58;;;;;;;15.90;8.23;;;;;;;;;;5130177;27;20128;-63
2023/04/18 03:00:24;;;;;;;18.25;10.40;;;;;;;;;;5129093;27;20011;-70
2023/04/18 03:02:49;;;;;;;17.23;9.40;;;;;;;;;;5130179;27;20136;-63
2023/04/18 03:05:15;;;;;;;12.90;7.82;;;;;;;;;;5129016;27;20430;-63
2023/04/18 03:07:40;;;;;;;12.05;7.78;;;;;;;;;;5129611;27;20034;-66
2023/04/18 03:10:06;;;;;;;16.83;8.23;;;;;;;;;;5129922;27;20042;-70
2023/04/18 03:12:31;;;;;;;14.13;8.13;;;;;;;;;;5128707;27;20023;-65
2023/04/18 03:14:57;;;;;;;11.52;7.55;;;;;;;;;;5130239;27;20050;-67
2023/04/18 03:17:22;;;;;;;13.20;7.20;;;;;;;;;;5129613;27;20034;-69
2023/04/18 03:19:48;;;;;;;13.38;8.07;;;;;;;;;;5134704;27;20040;-71
2023/04/18 03:22:14;;;;;;;11.95;7.03;;;;;;;;;;5150115;27;20067;-63
2023/04/18 03:24:40;;;;;;;12.55;7.13;;;;;;;;;;5137300;27;20035;-63
2023/04/18 03:27:05;;;;;;;12.40;7.65;;;;;;;;;;5129466;27;20058;-66
2023/04/18 03:29:31;;;;;;;12.50;7.90;;;;;;;;;;5128775;27;20078;-63
2023/04/18 03:31:56;;;;;;;12.35;7.45;;;;;;;;;;5128847;27;20183;-64
2023/04/18 03:34:21;;;;;;;13.98;7.28;;;;;;;;;;5128640;27;20022;-63
2023/04/18 03:36:47;;;;;;;12.10;7.45;;;;;;;;;;5127824;27;20442;-68
2023/04/18 03:39:12;;;;;;;13.48;7.85;;;;;;;;;;5128774;27;20390;-66
2023/04/18 03:41:38;;;;;;;15.30;7.55;;;;;;;;;;5129388;27;20026;-64
2023/04/18 03:44:03;;;;;;;15.32;8.27;;;;;;;;;;5128580;27;20030;-64
2023/04/18 03:46:29;;;;;;;15.05;8.73;;;;;;;;;;5127128;27;20487;-65
2023/04/18 03:48:54;;;;;;;14.90;8.48;;;;;;;;;;5128813;27;20022;-65
2023/04/18 03:51:20;;;;;;;11.10;7.75;;;;;;;;;;5128619;27;20021;-64
2023/04/18 03:53:45;;;;;;;15.43;8.20;;;;;;;;;;5129344;27;20512;-68
2023/04/18 03:56:11;;;;;;;14.00;7.75;;;;;;;;;;5128143;27;20050;-66
2023/04/18 03:58:36;;;;;;;13.25;7.80;;;;;;;;;;5128883;27;20081;-65
2023/04/18 04:01:02;;;;;;;15.13;7.78;;;;;;;;;;5128320;27;20038;-67
2023/04/18 04:03:27;;;;;;;14.82;7.93;;;;;;;;;;5128107;27;20030;-65
2023/04/18 04:05:53;;;;;;;13.27;7.82;;;;;;;;;;5128370;27;20030;-65
2023/04/18 04:08:20;;;;;;;13.05;7.30;;;;;;;;;;5126314;27;20080;-73
2023/04/18 04:10:45;;;;;;;13.25;7.45;;;;;;;;;;5126629;27;20038;-63
2023/04/18 04:13:11;;;;;;;13.48;7.20;;;;;;;;;;5127497;27;20390;-66
2023/04/18 04:15:37;;;;;;;12.35;6.90;;;;;;;;;;5128498;27;20038;-65
2023/04/18 04:18:04;;;;;;;13.35;7.50;;;;;;;;;;5128078;27;20023;-67
2023/04/18 04:20:29;;;;;;;14.80;7.13;;;;;;;;;;5127615;27;20087;-64
2023/04/18 04:22:56;;;;;;;12.52;7.43;;;;;;;;;;5128430;27;20035;-72
2023/04/18 04:25:27;;;;;;;15.02;7.18;;;;;;;;;;5127593;27;20466;-73
2023/04/18 04:27:53;;;;;;;;;;;;;;;;;;5128239;27;20031;-63
2023/04/18 04:30:19;;;;;;;12.43;7.22;;;;;;;;;;5127301;27;20373;-68
2023/04/18 04:32:46;;;;;;;9.45;6.70;;;;;;;;;;5127772;27;20047;-64
2023/04/18 04:35:12;;;;;;;10.98;7.15;;;;;;;;;;5127604;27;20027;-66
2023/04/18 04:37:40;;;;;;;13.73;7.45;;;;;;;;;;5128635;27;20011;-65
2023/04/18 04:40:08;;;;;;;15.38;7.65;;;;;;;;;;5127891;27;20034;-64
2023/04/18 04:42:34;;;;;;;13.80;7.70;;;;;;;;;;5127736;27;20042;-64
2023/04/18 04:45:00;;;;;;;10.88;7.43;;;;;;;;;;5128360;27;20109;-65
2023/04/18 04:47:25;;;;;;;12.65;7.72;;;;;;;;;;5127656;27;20019;-64
2023/04/18 04:49:51;;;;;;;14.43;7.57;;;;;;;;;;5127428;27;20027;-64
2023/04/18 04:52:16;;;;;;;16.27;7.63;;;;;;;;;;5127225;27;20096;-64
2023/04/18 04:54:43;;;;;;;12.23;7.65;;;;;;;;;;5127720;27;20370;-64
2023/04/18 04:57:09;;;;;;;13.55;8.82;;;;;;;;;;5128187;27;20031;-67
2023/04/18 04:59:35;;;;;;;14.52;8.40;;;;;;;;;;5127692;27;20516;-64
2023/04/18 05:02:00;;;;;;;14.77;8.10;;;;;;;;;;5127653;27;20118;-67
2023/04/18 05:04:26;;;;;;;14.50;8.50;;;;;;;;;;5127586;27;20053;-64
2023/04/18 05:06:51;;;;;;;12.45;8.23;;;;;;;;;;5127196;27;20102;-68
2023/04/18 05:09:17;;;;;;;14.60;8.75;;;;;;;;;;5136636;27;20045;-65
2023/04/18 05:11:42;;;;;;;14.15;8.25;;;;;;;;;;5148287;27;20034;-68
2023/04/18 05:14:08;;;;;;;14.30;7.88;;;;;;;;;;5144726;27;20023;-65
2023/04/18 05:16:33;;;;;;;14.07;8.30;;;;;;;;;;5127055;27;20100;-70
2023/04/18 05:18:59;;;;;;;13.57;8.63;;;;;;;;;;5128232;27;20370;-63
2023/04/18 05:21:25;;;;;;;15.43;8.35;;;;;;;;;;5125658;27;20338;-68
2023/04/18 05:23:50;;;;;;;15.82;8.38;;;;;;;;;;5127427;27;20382;-63
2023/04/18 05:26:17;;;;;;;12.63;7.88;;;;;;;;;;5126795;27;20030;-67
2023/04/18 05:28:43;;;;;;;16.40;8.15;;;;;;;;;;5127569;27;20421;-64
2023/04/18 05:31:08;;;;;;;14.10;8.32;;;;;;;;;;5127325;27;20051;-64
2023/04/18 05:33:33;;;;;;;15.15;8.38;;;;;;;;;;5127021;27;20023;-63
2023/04/18 05:35:59;;;;;;;14.93;7.80;;;;;;;;;;5126838;27;20176;-68
2023/04/18 05:38:25;;;;;;;14.38;7.88;;;;;;;;;;5126888;27;20104;-64
2023/04/18 05:40:50;;;;;;;12.10;7.97;;;;;;;;;;5127276;27;20311;-67
2023/04/18 05:43:19;;;;;;;21.55;9.30;;;;;;;;;;5146794;27;20083;-68
2023/04/18 05:45:45;;;;;;;13.90;7.60;;;;;;;;;;5147830;27;20023;-63
2023/04/18 05:48:11;;;;;;;15.55;8.18;;;;;;;;;;5147483;27;20023;-63
2023/04/18 05:50:36;;;;;;;14.75;8.60;;;;;;;;;;5148000;27;20022;-63
2023/04/18 05:53:02;;;;;;;11.60;7.05;;;;;;;;;;5147652;27;20071;-69
2023/04/18 05:55:27;;;;;;;14.85;7.57;;;;;;;;;;5147667;27;20472;-63
2023/04/18 05:57:53;;;;;;;14.95;7.53;;;;;;;;;;5147813;27;20064;-63
2023/04/18 06:00:18;;;;;;;16.77;8.57;;;;;;;;;;5149238;27;20034;-69
2023/04/18 06:02:44;;;;;;;16.85;7.68;;;;;;;;;;5139977;27;20019;-63
2023/04/18 06:05:11;;;;;;;12.85;8.10;;;;;;;;;;5130626;27;20027;-65
2023/04/18 06:07:37;;;;;;;18.67;7.97;;;;;;;;;;5129325;27;20528;-65
2023/04/18 06:10:04;;;;;;;14.05;8.00;;;;;;;;;;5137709;27;20105;-69
2023/04/18 06:12:29;;;;;;;13.85;8.30;;;;;;;;;;5150871;27;20105;-74
2023/04/18 06:14:55;;;;;;;13.35;7.53;;;;;;;;;;5150073;27;20109;-65
2023/04/18 06:17:20;;;;;;;11.25;7.60;;;;;;;;;;5150799;27;20030;-70
2023/04/18 06:19:46;;;;;;;13.43;7.22;;;;;;;;;;5150841;27;20105;-65
2023/04/18 06:22:11;;;;;;;11.95;6.97;;;;;;;;;;5150745;27;20085;-64
2023/04/18 06:24:37;;;;;;;12.05;7.60;;;;;;;;;;5151806;27;20488;-71
2023/04/18 06:27:04;;;;;;;12.63;7.47;;;;;;;;;;5151100;27;20034;-66
2023/04/18 06:29:31;;;;;;;9.73;6.40;;;;;;;;;;5150187;27;20030;-70
2023/04/18 06:31:57;;;;;;;12.95;7.57;;;;;;;;;;5143783;27;20043;-66
2023/04/18 06:34:23;;;;;;;11.23;7.35;;;;;;;;;;5129664;27;20039;-63
2023/04/18 06:36:48;;;;;;;10.98;6.63;;;;;;;;;;5130067;27;20031;-64
2023/04/18 06:39:14;;;;;;;23.15;8.00;;;;;;;;;;5129748;27;20113;-65
2023/04/18 06:41:39;;;;;;;18.83;6.75;;;;;;;;;;5128201;27;20382;-65
2023/04/18 06:44:05;;;;;;;11.57;7.25;;;;;;;;;;5142284;27;20054;-64
2023/04/18 06:46:31;;;;;;;14.07;7.28;;;;;;;;;;5150371;27;20124;-71
2023/04/18 06:48:57;;;;;;;12.25;7.88;;;;;;;;;;5150526;27;20040;-64
2023/04/18 06:51:22;;;;;;;12.07;6.68;;;;;;;;;;5150151;27;20023;-71
2023/04/18 06:53:51;;;;;;;9.77;7.07;;;;;;;;;;5150404;27;20395;-69
2023/04/18 06:56:17;;;;;;;11.60;6.60;;;;;;;;;;5150160;27;20015;-66
2023/04/18 06:58:43;;;;;;;10.73;6.60;;;;;;;;;;5150171;27;20147;-64
2023/04/18 07:01:08;;;;;;;9.38;6.57;;;;;;;;;;5140839;27;20148;-64
2023/04/18 07:03:34;;;;;;;12.55;6.50;;;;;;;;;;5129200;27;20015;-64
2023/04/18 07:05:59;;;;;;;9.60;5.97;;;;;;;;;;5126840;27;20441;-64
2023/04/18 07:08:25;;;;;;;9.85;6.07;;;;;;;;;;5131375;27;20033;-68
2023/04/18 07:10:50;;;;;;;11.02;6.63;;;;;;;;;;5136314;27;20045;-67
2023/04/18 07:13:16;;;;;;;10.50;6.38;;;;;;;;;;5130137;27;20015;-67
2023/04/18 07:15:41;;;;;;;10.27;6.30;;;;;;;;;;5130584;27;20027;-64
2023/04/18 07:18:06;;;;;;;9.90;6.70;;;;;;;;;;5130660;27;20092;-64
2023/04/18 07:20:32;;;;;;;11.93;6.10;;;;;;;;;;5129695;27;20019;-66
2023/04/18 07:22:57;;;;;;;10.13;5.65;;;;;;;;;;5145259;27;20707;-63
2023/04/18 07:25:23;;;;;;;9.18;6.38;;;;;;;;;;5151014;27;20033;-70
2023/04/18 07:27:49;;;;;;;9.60;6.03;;;;;;;;;;5150997;27;20031;-68
2023/04/18 07:30:14;;;;;;;11.63;7.03;;;;;;;;;;5141427;27;20027;-64
2023/04/18 07:32:40;;;;;;;12.80;6.10;;;;;;;;;;5133818;27;20488;-65
2023/04/18 07:35:05;;;;;;;9.15;6.50;;;;;;;;;;5147766;27;20024;-64
2023/04/18 07:37:31;;;;;;;11.40;7.38;;;;;;;;;;5128251;27;20023;-64
2023/04/18 07:39:57;;;;;;;12.38;6.63;;;;;;;;;;5136907;27;20080;-73
2023/04/18 07:42:23;;;;;;;10.80;7.28;;;;;;;;;;5151100;27;20026;-69
2023/04/18 07:44:48;;;;;;;12.98;7.28;;;;;;;;;;5134191;27;20038;-64
2023/04/18 07:47:14;;;;;;;12.38;7.40;;;;;;;;;;5129415;27;20485;-63
2023/04/18 07:49:39;;;;;;;13.82;7.10;;;;;;;;;;5147516;27;20034;-64
2023/04/18 07:52:05;;;;;;;9.63;7.25;;;;;;;;;;5147498;27;20358;-71
2023/04/18 07:54:31;;;;;;;11.98;6.97;;;;;;;;;;5149533;27;20508;-63
2023/04/18 07:56:58;;;;;;;12.32;6.82;;;;;;;;;;5150757;27;20047;-66
2023/04/18 07:59:23;;;;;;;13.20;6.90;;;;;;;;;;5146725;27;20038;-68
2023/04/18 08:01:48;;;;;;;12.88;7.20;;;;;;;;;;5136469;27;20027;-66
2023/04/18 08:04:14;;;;;;;14.07;7.43;;;;;;;;;;5129532;27;20031;-71
2023/04/18 08:06:40;;;;;;;9.52;6.65;;;;;;;;;;5146746;27;20505;-63
2023/04/18 08:09:05;;;;;;;9.80;6.45;;;;;;;;;;5127797;27;20027;-70
2023/04/18 08:11:32;;;;;;;9.38;6.43;;;;;;;;;;5136641;27;20038;-63
2023/04/18 08:13:57;;;;;;;9.75;6.65;;;;;;;;;;5135390;27;20374;-65
2023/04/18 08:16:23;;;;;;;8.90;5.82;;;;;;;;;;5128917;27;20031;-67
2023/04/18 08:18:48;;;;;;;9.77;6.70;;;;;;;;;;5130991;27;20449;-71
2023/04/18 08:21:14;;;;;;;10.13;6.68;;;;;;;;;;5137035;27;20027;-65
2023/04/18 08:23:39;;;;;;;11.40;6.70;;;;;;;;;;5150600;27;20052;-65
2023/04/18 08:26:05;;;;;;;10.90;6.50;;;;;;;;;;5142322;27;20450;-70
2023/04/18 08:28:30;;;;;;;10.00;6.63;;;;;;;;;;5136865;27;20031;-71
2023/04/18 08:30:56;;;;;;;11.35;6.18;;;;;;;;;;5143841;27;20066;-73
2023/04/18 08:33:25;;;;;;;10.07;6.28;;;;;;;;;;5131007;27;20516;-69
2023/04/18 08:35:50;;;;;;;8.13;6.35;;;;;;;;;;5133585;27;20110;-72
2023/04/18 08:38:17;;;;;;;10.40;6.38;;;;;;;;;;5133972;27;20109;-68
2023/04/18 08:40:43;;;;;;;9.05;6.93;;;;;;;;;;5149838;27;20026;-65
2023/04/18 08:43:12;;;;;;;8.88;6.05;;;;;;;;;;5146301;27;20466;-65
2023/04/18 08:45:39;;;;;;;9.02;5.68;;;;;;;;;;5127558;27;20453;-66
2023/04/18 08:48:06;;;;;;;8.57;5.55;;;;;;;;;;5136958;27;20160;-63
2023/04/18 08:50:32;;;;;;;9.57;6.32;;;;;;;;;;5149424;27;20039;-63
2023/04/18 08:53:00;;;;;;;9.30;6.50;;;;;;;;;;5137230;27;20019;-64
2023/04/18 08:55:25;;;;;;;8.95;5.90;;;;;;;;;;5127338;27;20476;-65
2023/04/18 08:57:53;;;;;;;12.13;6.35;;;;;;;;;;5129044;27;20071;-64
2023/04/18 09:00:19;;;;;;;8.02;6.43;;;;;;;;;;5141898;27;20501;-68
2023/04/18 09:02:45;;;;;;;10.48;6.40;;;;;;;;;;5149705;27;20026;-63
2023/04/18 09:05:15;;;;;;;10.00;5.80;;;;;;;;;;5136454;27;20024;-63
2023/04/18 09:07:41;;;;;;;9.02;6.38;;;;;;;;;;5128716;27;20501;-64
2023/04/18 09:10:07;;;;;;;9.70;5.90;;;;;;;;;;5128973;27;20124;-64
2023/04/18 09:12:41;;;;;;;8.07;5.90;;;;;;;;;;5128558;27;20102;-63
2023/04/18 09:15:14;;;;;;;8.13;6.32;;;;;;;;;;5129029;27;20027;-67
2023/04/18 09:17:48;;;;;;;9.85;5.68;;;;;;;;;;5128845;27;20034;-64
2023/04/18 09:20:33;;;;;;;11.50;6.38;;;;;;;;;;5131088;27;20024;-71
2023/04/18 09:23:01;;;;;;;9.23;5.60;;;;;;;;;;5150171;27;20050;-70
2023/04/18 09:25:46;;;;;;;8.25;6.10;;;;;;;;;;5129896;27;20023;-74
2023/04/18 09:28:31;;;;;;;13.65;6.05;;;;;;;;;;5128391;27;20107;-63
2023/04/18 09:31:08;;;;;;;10.35;5.82;;;;;;;;;;5128509;27;20027;-69
2023/04/18 09:33:35;;;;;;;11.95;6.47;;;;;;;;;;5128216;27;20045;-63
2023/04/18 09:36:23;;;;;;;10.52;5.88;;;;;;;;;;5131660;27;20451;-64
2023/04/18 09:38:50;;;;;;;9.05;5.93;;;;;;;;;;5132739;27;20031;-73
2023/04/18 09:41:16;;;;;;;9.93;5.30;;;;;;;;;;5132214;27;20042;-66
2023/04/18 09:43:43;;;;;;;9.38;5.53;;;;;;;;;;5132346;27;20363;-64
2023/04/18 09:46:11;;;;;;;8.73;5.63;;;;;;;;;;5132882;27;20027;-64
2023/04/18 09:48:37;;;;;;;10.68;5.78;;;;;;;;;;5133546;27;20411;-67
2023/04/18 09:51:10;;;;;;;7.85;5.63;;;;;;;;;;5132335;27;20038;-64
2023/04/18 09:53:43;;;;;;;8.88;5.38;;;;;;;;;;5132754;27;20019;-64
2023/04/18 09:56:22;;;;;;;8.13;5.72;;;;;;;;;;5132333;27;20019;-64
2023/04/18 09:58:54;;;;;;;8.32;6.03;;;;;;;;;;5132478;27;20505;-65
2023/04/18 10:01:20;;;;;;;8.07;6.30;;;;;;;;;;5152464;27;20360;-65
2023/04/18 10:03:47;;;;;;;13.05;5.93;;;;;;;;;;5152936;27;20022;-64
2023/04/18 10:06:15;;;;;;;9.93;6.13;;;;;;;;;;5152038;27;20022;-65
2023/04/18 10:08:43;;;;;;;9.43;5.97;;;;;;;;;;5152667;27;20026;-64
2023/04/18 10:11:08;;;;;;;9.05;5.90;;;;;;;;;;5153001;27;20476;-64
2023/04/18 10:13:37;;;;;;;8.93;5.70;;;;;;;;;;5152279;27;20041;-73
2023/04/18 10:16:03;;;;;;;7.68;5.45;;;;;;;;;;5152431;27;20046;-69
2023/04/18 10:18:28;;;;;;;7.22;5.53;;;;;;;;;;5152354;27;20050;-64
2023/04/18 10:21:01;;;;;;;9.23;5.65;;;;;;;;;;5138247;27;20027;-69
2023/04/18 10:23:30;;;;;;;7.07;5.55;;;;;;;;;;5131807;27;20423;-64
2023/04/18 10:25:56;;;;;;;9.20;5.90;;;;;;;;;;5130427;27;20031;-65
2023/04/18 10:28:23;;;;;;;6.75;4.68;;;;;;;;;;5131434;27;20476;-66
2023/04/18 10:30:51;;;;;;;6.97;4.97;;;;;;;;;;5130980;27;20035;-67
2023/04/18 10:33:37;;;;;;;7.00;5.30;;;;;;;;;;5132483;27;20035;-68
2023/04/18 10:36:08;;;;;;;15.85;6.35;;;;;;;;;;5142459;27;20486;-67
2023/04/18 10:38:35;;;;;;;6.78;5.28;;;;;;;;;;5131150;27;20031;-68
2023/04/18 10:41:25;;;;;;;6.28;4.70;;;;;;;;;;5131120;27;20038;-63
2023/04/18 10:44:13;;;;;;;9.82;5.53;;;;;;;;;;5131445;27;20512;-62
2023/04/18 10:47:07;;;;;;;9.82;6.30;;;;;;;;;;5131175;27;20027;-64
2023/04/18 10:49:35;;;;;;;8.27;5.50;;;;;;;;;;5130887;27;20035;-63
2023/04/18 10:52:02;;;;;;;8.82;5.63;;;;;;;;;;5131254;27;20069;-62
2023/04/18 10:54:30;;;;;;;9.63;5.68;;;;;;;;;;5130898;27;20019;-62
2023/04/18 10:56:58;;;;;;;8.02;5.43;;;;;;;;;;5130909;27;20397;-63
2023/04/18 10:59:25;;;;;;;8.32;5.55;;;;;;;;;;5136231;27;20022;-62
2023/04/18 11:02:29;;;;;;;9.98;5.32;;;;;;;;;;5151665;27;20056;-63
2023/04/18 11:04:57;;;;;;;9.73;6.03;;;;;;;;;;5151698;27;20033;-63
2023/04/18 11:07:36;;;;;;;7.93;5.57;;;;;;;;;;5149741;27;20378;-62
2023/04/18 11:10:04;;;;;;;6.25;4.90;;;;;;;;;;5151070;27;20031;-62
2023/04/18 11:12:34;;;;;;;9.20;6.00;;;;;;;;;;5150953;27;20062;-62
2023/04/18 11:15:01;;;;;;;7.25;5.40;;;;;;;;;;5144432;27;20486;-66
2023/04/18 11:17:31;;;;;;;9.80;5.47;;;;;;;;;;5150026;27;20104;-63
2023/04/18 11:20:11;;;;;;;9.15;6.78;;;;;;;;;;5151525;27;20022;-62
2023/04/18 11:22:45;;;;;;;7.25;5.30;;;;;;;;;;5151428;27;20152;-62
2023/04/18 11:25:11;;;;;;;6.05;4.70;;;;;;;;;;5150699;27;20030;-66
2023/04/18 11:27:39;;;;;;;7.68;4.78;;;;;;;;;;5151712;27;20026;-68
2023/04/18 11:30:06;;;;;;;6.20;4.65;;;;;;;;;;5151180;27;20053;-64
2023/04/18 11:32:32;;;;;;;13.57;9.13;;;;;;;;;;5138988;27;20064;-66
2023/04/18 11:34:58;;;;;;;12.48;6.38;;;;;;;;;;5148476;27;20624;-62
2023/04/18 11:37:23;;;;;;;8.57;6.32;;;;;;;;;;5132245;27;20023;-64
2023/04/18 11:39:52;;;;;;;6.10;4.07;;;;;;;;;;5150576;27;20033;-62
2023/04/18 11:42:17;;;;;;;13.57;10.55;;;;;;;;;;5150497;27;20037;-64
2023/04/18 11:44:46;;;;;;;15.25;11.00;;;;;;;;;;5149287;27;20455;-62
2023/04/18 11:47:32;;;;;;;15.45;10.20;;;;;;;;;;5150262;27;20468;-65
2023/04/18 11:50:00;;;;;;;11.65;8.10;;;;;;;;;;5150756;27;20026;-66
2023/04/18 11:52:27;;;;;;;22.90;16.23;;;;;;;;;;5135502;27;20084;-63
2023/04/18 11:54:53;;;;;;;10.05;7.63;;;;;;;;;;5129751;27;20375;-62
2023/04/18 11:57:22;;;;;;;6.82;4.90;;;;;;;;;;5128681;27;20031;-62
2023/04/18 12:00:00;;;;;;;5.72;4.00;;;;;;;;;;5139156;27;20042;-69
2023/04/18 12:02:39;;;;;;;5.90;4.40;;;;;;;;;;5150030;27;20511;-62
2023/04/18 12:05:05;;;;;;;5.03;3.95;;;;;;;;;;5150812;27;20027;-65
2023/04/18 12:07:32;;;;;;;4.90;3.65;;;;;;;;;;5147252;27;20390;-64
2023/04/18 12:09:57;;;;;;;5.93;5.03;;;;;;;;;;5137910;27;20110;-65
2023/04/18 12:12:23;;;;;;;7.05;3.60;;;;;;;;;;5129092;27;20134;-62
2023/04/18 12:14:59;;;;;;;6.13;4.00;;;;;;;;;;5128885;27;20534;-71
2023/04/18 12:17:26;;;;;;;5.38;3.78;;;;;;;;;;5128000;27;20072;-69
2023/04/18 12:19:52;;;;;;;4.78;3.13;;;;;;;;;;5129676;27;20023;-72
2023/04/18 12:22:18;;;;;;;4.40;3.10;;;;;;;;;;5128923;27;20055;-65
2023/04/18 12:24:45;;;;;;;6.30;3.25;;;;;;;;;;5129403;27;20027;-66
2023/04/18 12:27:10;;;;;;;7.57;3.22;;;;;;;;;;5142197;27;20014;-66
2023/04/18 12:29:36;;;;;;;4.68;3.10;;;;;;;;;;5133709;27;20161;-63
2023/04/18 12:32:02;;;;;;;6.60;3.28;;;;;;;;;;5133094;27;20042;-64
2023/04/18 12:34:27;;;;;;;5.28;3.80;;;;;;;;;;5131546;27;20031;-61
2023/04/18 12:36:52;;;;;;;5.93;3.40;;;;;;;;;;5133075;27;20038;-71
2023/04/18 12:39:19;;;;;;;4.95;3.30;;;;;;;;;;5128532;27;20031;-62
2023/04/18 12:41:45;;;;;;;5.30;3.30;;;;;;;;;;5129050;27;20030;-72
2023/04/18 12:44:11;;;;;;;5.00;3.00;;;;;;;;;;5129000;27;20027;-62
2023/04/18 12:46:36;;;;;;;5.88;2.53;;;;;;;;;;5129341;27;20043;-62
2023/04/18 12:49:02;;;;;;;4.10;2.97;;;;;;;;;;5129089;27;20492;-68
2023/04/18 12:51:27;;;;;;;6.25;2.85;;;;;;;;;;5128736;27;20031;-63
2023/04/18 12:53:53;;;;;;;3.80;2.55;;;;;;;;;;5128994;27;20405;-62
2023/04/18 12:56:18;;;;;;;5.25;3.00;;;;;;;;;;5128273;27;20039;-62
2023/04/18 12:58:44;;;;;;;4.70;2.60;;;;;;;;;;5128982;27;20034;-73
2023/04/18 13:01:12;;;;;;;3.78;2.75;;;;;;;;;;5125624;27;20482;-62
2023/04/18 13:03:38;;;;;;;3.38;2.78;;;;;;;;;;5129573;27;20041;-73
2023/04/18 13:06:04;;;;;;;4.18;2.70;;;;;;;;;;5128436;27;20027;-63
2023/04/18 13:08:30;;;;;;;6.32;2.80;;;;;;;;;;5129420;27;20057;-62
2023/04/18 13:10:56;;;;;;;3.95;3.00;;;;;;;;;;5133281;27;20027;-63
2023/04/18 13:13:22;;;;;;;4.60;2.70;;;;;;;;;;5132737;27;20031;-63
2023/04/18 13:15:47;;;;;;;6.13;4.55;;;;;;;;;;5132215;27;20033;-63
2023/04/18 13:18:13;;;;;;;6.20;2.80;;;;;;;;;;5132344;27;20031;-62
2023/04/18 13:20:38;;;;;;;4.68;2.58;;;;;;;;;;5141790;27;20019;-62
2023/04/18 13:23:04;;;;;;;5.00;2.60;;;;;;;;;;5133234;27;20076;-69
2023/04/18 13:25:29;;;;;;;3.00;2.33;;;;;;;;;;5132561;27;20027;-63
2023/04/18 13:27:56;;;;;;;4.20;2.58;;;;;;;;;;5132936;27;20037;-63
2023/04/18 13:30:21;;;;;;;4.80;2.58;;;;;;;;;;5130849;27;20027;-62
2023/04/18 13:32:47;;;;;;;4.28;2.30;;;;;;;;;;5132327;27;20051;-62
2023/04/18 13:35:12;;;;;;;4.53;3.10;;;;;;;;;;5132517;27;20019;-62
2023/04/18 13:37:38;;;;;;;5.60;3.00;;;;;;;;;;5133226;27;20053;-63
2023/04/18 13:40:05;;;;;;;4.00;2.60;;;;;;;;;;5132877;27;20030;-63
2023/04/18 13:42:32;;;;;;;6.45;4.25;;;;;;;;;;5132508;27;20023;-63
2023/04/18 13:44:58;;;;;;;3.47;2.60;;;;;;;;;;5132561;27;20015;-63
2023/04/18 13:47:24;;;;;;;6.22;2.67;;;;;;;;;;5147004;27;20041;-63
2023/04/18 13:49:50;;;;;;;4.82;3.30;;;;;;;;;;5138690;27;20015;-62
2023/04/18 13:52:16;;;;;;;6.35;2.50;;;;;;;;;;5132205;27;20023;-69
2023/04/18 13:54:41;;;;;;;5.53;2.78;;;;;;;;;;5131757;27;20027;-62
2023/04/18 13:57:13;;;;;;;5.07;3.70;;;;;;;;;;5132754;27;20023;-62
2023/04/18 13:59:39;;;;;;;4.70;2.92;;;;;;;;;;5139687;27;20057;-64
2023/04/18 14:02:06;;;;;;;3.85;2.67;;;;;;;;;;5152893;27;20058;-69
2023/04/18 14:04:31;;;;;;;5.43;3.72;;;;;;;;;;5149924;27;20054;-72
2023/04/18 14:06:56;;;;;;;6.97;4.57;;;;;;;;;;5130081;27;20449;-63
2023/04/18 14:09:22;;;;;;;8.65;7.00;;;;;;;;;;5137788;27;20135;-65
2023/04/18 14:11:47;;;;;;;9.80;8.48;;;;;;;;;;5141575;27;20115;-71
2023/04/18 14:14:13;;;;;;;9.30;6.40;;;;;;;;;;5129930;27;20029;-72
2023/04/18 14:16:39;;;;;;;9.57;5.70;;;;;;;;;;5130310;27;20027;-62
2023/04/18 14:19:04;;;;;;;6.70;4.28;;;;;;;;;;5129087;27;20019;-64
2023/04/18 14:21:30;;;;;;;6.28;3.63;;;;;;;;;;5130076;27;20035;-63
2023/04/18 14:23:55;;;;;;;7.55;4.45;;;;;;;;;;5130623;27;20072;-71
2023/04/18 14:26:21;;;;;;;6.97;4.32;;;;;;;;;;5131611;27;20083;-67
2023/04/18 14:28:47;;;;;;;7.03;5.00;;;;;;;;;;5129656;27;20143;-70
2023/04/18 14:31:13;;;;;;;6.97;4.32;;;;;;;;;;5129266;27;20057;-64